Time;durP1;ratioP1;P1;durP2;ratioP2;P2;SDS_P1;SDS_P2;PMS_P1;PMS_P2;Temp;Humidity;BMP_temperature;BMP_pressure;BME280_temperature;BME280_humidity;BME280_pressure;Samples;Min_cycle;Max_cycle;Signal;HPM_P1;HPM_P2
2022/03/12 00:00:03;;;;;;;;;11.33;11.00;;;;;13.78;33.98;99267.16;5065319;28;45424;-74
2022/03/12 00:02:30;;;;;;;;;10.00;10.00;;;;;13.78;33.77;99274.25;5065213;28;45446;-74
2022/03/12 00:04:55;;;;;;;;;9.75;9.00;;;;;13.79;33.35;99271.50;5065096;28;45500;-74
2022/03/12 00:07:21;;;;;;;;;13.00;10.33;;;;;13.79;33.13;99260.91;5072090;28;45432;-74
2022/03/12 00:09:46;;;;;;;;;11.67;11.33;;;;;13.81;33.39;99260.84;5067899;28;45473;-74
2022/03/12 00:12:17;;;;;;;;;10.50;8.75;;;;;13.82;33.06;99254.59;5056429;28;45868;-74
2022/03/12 00:14:47;;;;;;;;;9.25;9.00;;;;;13.84;32.94;99252.75;5070822;28;45423;-74
2022/03/12 00:17:13;;;;;;;;;7.75;7.25;;;;;13.84;32.82;99253.59;5064954;28;46330;-74
2022/03/12 00:19:42;;;;;;;;;8.00;8.00;;;;;13.87;32.71;99253.44;5065287;28;45306;-73
2022/03/12 00:22:09;;;;;;;;;9.00;8.00;;;;;13.88;32.48;99257.81;5065211;28;45490;-74
2022/03/12 00:24:36;;;;;;;;;9.67;9.67;;;;;13.90;32.87;99260.38;5067847;28;45415;-74
2022/03/12 00:27:02;;;;;;;;;21.00;18.33;;;;;13.89;34.05;99269.28;5054280;28;48053;-74
2022/03/12 00:29:28;;;;;;;;;18.00;15.67;;;;;13.83;34.49;99262.47;5040932;28;45485;-74
2022/03/12 00:31:54;;;;;;;;;19.33;17.67;;;;;13.80;35.48;99265.28;5072934;28;45409;-74
2022/03/12 00:34:20;;;;;;;;;16.33;15.67;;;;;13.73;35.44;99265.69;5049844;28;45519;-74
2022/03/12 00:36:46;;;;;;;;;17.00;16.67;;;;;13.65;35.58;99270.50;5062704;28;46118;-74
2022/03/12 00:39:14;;;;;;;;;19.00;18.00;;;;;13.56;35.67;99275.34;5041085;28;45741;-74
2022/03/12 00:41:42;;;;;;;;;20.00;18.00;;;;;13.50;36.41;99274.78;5061789;28;45421;-74
2022/03/12 00:44:09;;;;;;;;;20.33;17.33;;;;;13.40;37.22;99278.81;5065493;28;45227;-74
2022/03/12 00:46:35;;;;;;;;;24.67;19.33;;;;;13.30;37.21;99278.41;5056539;28;46091;-74
2022/03/12 00:49:01;;;;;;;;;19.67;18.33;;;;;13.17;37.77;99277.28;5056165;28;45444;-74
2022/03/12 00:51:26;;;;;;;;;17.67;17.00;;;;;13.04;37.63;99269.03;5056687;28;45565;-74
2022/03/12 00:53:52;;;;;;;;;17.33;16.67;;;;;12.94;37.33;99278.31;5044771;28;45404;-74
2022/03/12 00:56:17;;;;;;;;;14.00;12.00;;;;;12.86;38.09;99277.84;5071728;28;46319;-75
2022/03/12 00:58:45;;;;;;;;;17.33;15.33;;;;;12.74;38.27;99273.09;5058409;28;45511;-74
2022/03/12 01:01:11;;;;;;;;;19.33;15.33;;;;;12.63;38.44;99272.75;5063362;28;45323;-74
2022/03/12 01:03:37;;;;;;;;;18.00;12.33;;;;;12.61;38.84;99271.97;5055091;28;45572;-74
2022/03/12 01:06:05;;;;;;;;;17.33;15.67;;;;;12.56;38.51;99267.75;5064495;28;46131;-74
2022/03/12 01:08:32;;;;;;;;;14.67;14.33;;;;;12.54;38.01;99274.91;5047498;28;45481;-74
2022/03/12 01:11:04;;;;;;;;;17.67;16.33;;;;;12.56;38.76;99264.25;5065240;28;45505;-74
2022/03/12 01:13:30;;;;;;;;;14.67;14.33;;;;;12.58;38.46;99267.66;5059710;28;45440;-74
2022/03/12 01:15:57;;;;;;;;;16.00;14.00;;;;;12.59;38.64;99269.38;5066584;28;46487;-74
2022/03/12 01:18:24;;;;;;;;;14.67;13.67;;;;;12.61;38.38;99266.66;5059240;28;45332;-74
2022/03/12 01:20:50;;;;;;;;;17.67;12.00;;;;;12.63;37.61;99273.59;5069584;28;45448;-74
2022/03/12 01:23:18;;;;;;;;;15.00;12.67;;;;;12.66;38.11;99269.97;5064565;28;45643;-74
2022/03/12 01:25:46;;;;;;;;;17.00;13.00;;;;;12.64;38.67;99262.09;5065041;28;45436;-74
2022/03/12 01:28:13;;;;;;;;;13.00;11.67;;;;;12.59;38.19;99254.38;5060611;28;45401;-74
2022/03/12 01:30:42;;;;;;;;;12.00;10.00;;;;;12.59;37.77;99257.00;5069251;28;45405;-74
2022/03/12 01:33:09;;;;;;;;;12.33;10.00;;;;;12.63;36.89;99257.75;5070047;28;45288;-74
2022/03/12 01:35:35;;;;;;;;;4.00;4.00;;;;;12.73;35.31;99248.47;5059376;28;45364;-74
2022/03/12 01:38:01;;;;;;;;;8.67;8.00;;;;;12.86;36.20;99240.81;5061777;28;45470;-74
2022/03/12 01:40:27;;;;;;;;;11.00;11.00;;;;;12.92;36.50;99248.44;5066031;28;45480;-74
2022/03/12 01:42:52;;;;;;;;;7.00;7.00;;;;;12.95;36.18;99250.94;5052018;28;45397;-74
2022/03/12 01:45:27;;;;;;;;;10.33;8.00;;;;;13.01;36.36;99249.78;5042285;28;48090;-74
2022/03/12 01:48:01;;;;;;;;;8.00;7.67;;;;;13.06;36.04;99250.44;5059669;28;45438;-74
2022/03/12 01:50:35;;;;;;;;;6.67;6.67;;;;;13.10;35.33;99238.75;5064469;28;45486;-74
2022/03/12 01:53:07;;;;;;;;;6.50;5.25;;;;;13.13;35.30;99226.22;5052719;28;45485;-74
2022/03/12 01:55:33;;;;;;;;;8.67;8.00;;;;;13.19;35.27;99230.41;5061605;28;45451;-74
2022/03/12 01:58:01;;;;;;;;;6.00;6.00;;;;;13.23;35.07;99235.50;5070969;28;45307;-74
2022/03/12 02:00:28;;;;;;;;;8.75;8.75;;;;;13.27;35.07;99221.16;5065512;28;45393;-74
2022/03/12 02:02:54;;;;;;;;;6.67;6.67;;;;;13.30;34.94;99214.84;5061492;28;45639;-74
2022/03/12 02:05:24;;;;;;;;;8.00;8.00;;;;;13.32;35.01;99222.72;5054739;28;45457;-74
2022/03/12 02:07:49;;;;;;;;;11.33;9.00;;;;;13.31;35.47;99218.34;5064699;28;45449;-74
2022/03/12 02:10:18;;;;;;;;;8.50;8.50;;;;;13.30;35.70;99217.50;5065446;28;45527;-74
2022/03/12 02:12:43;;;;;;;;;10.67;10.00;;;;;13.29;35.74;99221.06;5055538;28;45529;-74
2022/03/12 02:15:09;;;;;;;;;10.33;10.00;;;;;13.28;35.79;99212.28;5068602;28;46406;-74
2022/03/12 02:17:37;;;;;;;;;9.00;8.67;;;;;13.26;35.95;99222.06;5068522;28;45442;-74
2022/03/12 02:20:03;;;;;;;;;14.00;10.67;;;;;13.25;35.76;99230.09;5055261;28;45460;-73
2022/03/12 02:22:29;;;;;;;;;7.33;7.00;;;;;13.24;35.94;99231.88;5036711;28;45342;-74
2022/03/12 02:24:54;;;;;;;;;14.67;11.67;;;;;13.23;36.06;99231.97;5054714;28;46092;-74
2022/03/12 02:27:20;;;;;;;;;12.67;10.67;;;;;13.18;36.57;99241.94;5055541;28;45371;-74
2022/03/12 02:29:46;;;;;;;;;11.00;10.67;;;;;13.05;37.33;99244.28;5055811;28;45338;-74
2022/03/12 02:32:13;;;;;;;;;12.67;12.67;;;;;12.86;37.83;99243.44;5055230;28;45350;-74
2022/03/12 02:34:51;;;;;;;;;14.00;14.00;;;;;12.68;38.14;99241.66;5055030;28;46106;-74
2022/03/12 02:37:45;;;;;;;;;14.67;14.33;;;;;12.55;38.49;99236.94;5054923;28;45211;-74
2022/03/12 02:40:12;;;;;;;;;13.67;13.67;;;;;12.40;38.75;99247.38;5054974;28;45457;-74
2022/03/12 02:42:39;;;;;;;;;10.67;9.67;;;;;12.29;39.64;99254.91;5055152;28;45366;-74
2022/03/12 02:45:07;;;;;;;;;15.00;12.00;;;;;12.17;39.97;99243.97;5054889;28;46532;-74
2022/03/12 02:47:34;;;;;;;;;13.67;12.67;;;;;12.07;40.12;99234.72;5037217;28;45359;-74
2022/03/12 02:50:07;;;;;;;;;14.67;9.33;;;;;11.98;39.76;99248.34;5054863;28;45342;-74
2022/03/12 02:52:39;;;;;;;;;18.67;14.33;;;;;11.89;40.45;99240.84;5055385;28;45378;-74
2022/03/12 02:55:05;;;;;;;;;15.33;13.67;;;;;11.81;40.85;99237.66;5054322;28;46226;-73
2022/03/12 02:57:31;;;;;;;;;14.33;10.33;;;;;11.76;40.47;99247.53;5055039;28;45452;-74
2022/03/12 03:00:03;;;;;;;;;13.33;13.33;;;;;11.72;41.05;99243.31;5054696;28;45442;-74
2022/03/12 03:02:31;;;;;;;;;12.33;9.67;;;;;11.68;41.11;99252.28;5054878;28;45353;-74
2022/03/12 03:04:58;;;;;;;;;12.67;11.67;;;;;11.63;41.13;99233.97;5054216;28;45499;-74
2022/03/12 03:07:24;;;;;;;;;11.33;10.00;;;;;11.61;41.23;99229.69;5054659;28;45413;-74
2022/03/12 03:09:50;;;;;;;;;10.00;9.00;;;;;11.59;40.76;99237.66;5055091;28;45326;-74
2022/03/12 03:12:18;;;;;;;;;9.00;8.33;;;;;11.58;40.97;99238.59;5054807;28;45361;-74
2022/03/12 03:14:44;;;;;;;;;10.00;10.00;;;;;11.58;41.35;99240.38;5054772;28;45625;-74
2022/03/12 03:17:13;;;;;;;;;12.67;9.00;;;;;11.59;41.34;99244.72;5054681;28;45331;-74
2022/03/12 03:19:39;;;;;;;;;8.00;5.67;;;;;11.58;41.01;99243.00;5054423;28;45412;-74
2022/03/12 03:22:06;;;;;;;;;10.00;9.67;;;;;11.56;41.55;99248.38;5054459;28;45421;-74
2022/03/12 03:24:32;;;;;;;;;11.00;9.33;;;;;11.54;41.66;99248.44;5054660;28;45433;-74
2022/03/12 03:26:59;;;;;;;;;10.33;8.67;;;;;11.51;41.23;99240.66;5036518;28;45410;-74
2022/03/12 03:29:27;;;;;;;;;12.67;9.67;;;;;11.47;41.59;99244.34;5036302;28;45458;-74
2022/03/12 03:31:53;;;;;;;;;10.67;9.67;;;;;11.48;41.92;99245.19;5054552;28;45347;-74
2022/03/12 03:34:20;;;;;;;;;14.33;10.00;;;;;11.47;41.12;99244.34;5054234;28;46034;-74
2022/03/12 03:36:47;;;;;;;;;14.33;11.33;;;;;11.46;42.30;99250.53;5036365;28;45487;-74
2022/03/12 03:39:13;;;;;;;;;12.33;10.67;;;;;11.41;41.92;99241.06;5036789;28;45384;-74
2022/03/12 03:41:39;;;;;;;;;12.33;11.00;;;;;11.36;42.10;99236.00;5036139;28;45465;-74
2022/03/12 03:44:05;;;;;;;;;16.00;12.33;;;;;11.34;42.43;99239.63;5054273;28;45481;-74
2022/03/12 03:46:32;;;;;;;;;14.67;11.67;;;;;11.31;42.01;99231.84;5036323;28;45405;-74
2022/03/12 03:48:58;;;;;;;;;8.00;8.00;;;;;11.28;42.27;99240.72;5035838;28;45432;-74
2022/03/12 03:51:23;;;;;;;;;10.33;9.00;;;;;11.25;42.60;99242.63;5054382;28;45377;-74
2022/03/12 03:53:50;;;;;;;;;13.33;11.00;;;;;11.22;42.71;99238.38;5054231;28;46291;-74
2022/03/12 03:56:17;;;;;;;;;8.00;8.00;;;;;11.18;43.10;99244.69;5054224;28;45322;-74
2022/03/12 03:58:42;;;;;;;;;12.00;10.33;;;;;11.16;43.05;99242.09;5053930;28;45298;-74
2022/03/12 04:01:12;;;;;;;;;11.00;10.50;;;;;11.15;43.03;99242.16;5054195;28;45605;-74
2022/03/12 04:03:40;;;;;;;;;15.00;13.33;;;;;11.11;43.03;99237.91;5035834;28;47007;-74
2022/03/12 04:06:06;;;;;;;;;14.67;14.33;;;;;11.08;43.65;99244.19;5054131;28;45370;-74
2022/03/12 04:08:32;;;;;;;;;12.33;10.33;;;;;11.07;42.69;99244.22;5053904;28;45468;-74
2022/03/12 04:11:01;;;;;;;;;13.00;11.00;;;;;11.05;43.61;99238.19;5055342;28;45374;-74
2022/03/12 04:13:26;;;;;;;;;13.33;13.33;;;;;11.03;43.90;99242.66;5057336;28;46298;-74
2022/03/12 04:15:52;;;;;;;;;12.67;10.00;;;;;11.02;43.44;99233.88;5057277;28;45437;-74
2022/03/12 04:18:21;;;;;;;;;11.00;9.00;;;;;11.04;43.06;99242.59;5057312;28;45446;-74
2022/03/12 04:20:47;;;;;;;;;11.00;9.00;;;;;11.05;43.39;99239.06;5057020;28;45365;-73
2022/03/12 04:23:21;;;;;;;;;11.67;9.00;;;;;11.09;43.22;99247.66;5057317;28;45745;-74
2022/03/12 04:25:51;;;;;;;;;12.33;8.67;;;;;11.08;43.29;99236.25;5057427;28;45453;-74
2022/03/12 04:28:18;;;;;;;;;16.67;15.67;;;;;11.10;43.29;99242.34;5057536;28;45495;-74
2022/03/12 04:30:44;;;;;;;;;10.33;10.33;;;;;11.14;43.42;99251.00;5056897;28;45466;-74
2022/03/12 04:33:11;;;;;;;;;7.00;6.33;;;;;11.17;43.21;99245.59;5057273;28;46352;-74
2022/03/12 04:35:37;;;;;;;;;6.67;5.00;;;;;11.23;43.00;99247.16;5056995;28;45367;-74
2022/03/12 04:38:03;;;;;;;;;8.67;8.67;;;;;11.27;43.29;99254.00;5039335;28;45438;-74
2022/03/12 04:40:29;;;;;;;;;10.33;10.00;;;;;11.29;42.98;99250.38;5057140;28;45464;-74
2022/03/12 04:42:55;;;;;;;;;11.00;10.00;;;;;11.31;42.81;99256.44;5057268;28;45608;-74
2022/03/12 04:45:24;;;;;;;;;9.33;7.67;;;;;11.31;42.64;99252.94;5056509;28;45505;-74
2022/03/12 04:47:50;;;;;;;;;12.00;9.00;;;;;11.33;42.77;99251.13;5057266;28;45381;-74
2022/03/12 04:50:18;;;;;;;;;12.00;8.00;;;;;11.31;42.71;99252.94;5056754;28;45164;-74
2022/03/12 04:52:45;;;;;;;;;8.00;8.00;;;;;11.34;42.70;99252.84;5057049;28;46540;-74
2022/03/12 04:55:14;;;;;;;;;9.00;9.00;;;;;11.33;42.85;99253.75;5056624;28;45365;-74
2022/03/12 04:57:40;;;;;;;;;9.00;6.67;;;;;11.32;42.79;99260.81;5056814;28;45323;-74
2022/03/12 05:00:10;;;;;;;;;9.33;8.67;;;;;11.32;42.82;99265.22;5056468;28;45343;-74
2022/03/12 05:02:35;;;;;;;;;15.00;12.33;;;;;11.33;43.24;99267.81;5056561;28;45338;-74
2022/03/12 05:05:01;;;;;;;;;10.33;8.00;;;;;11.31;43.10;99266.16;5038042;28;45363;-74
2022/03/12 05:07:27;;;;;;;;;7.67;7.67;;;;;11.28;42.93;99253.06;5057047;28;45374;-74
2022/03/12 05:09:55;;;;;;;;;12.33;10.00;;;;;11.27;42.71;99272.47;5056840;28;45443;-74
2022/03/12 05:12:26;;;;;;;;;9.67;9.00;;;;;11.25;42.99;99269.88;5056688;28;45472;-74
2022/03/12 05:14:53;;;;;;;;;8.00;8.00;;;;;11.23;42.87;99273.53;5038702;28;46225;-74
2022/03/12 05:17:21;;;;;;;;;14.00;11.33;;;;;11.16;42.73;99272.91;5056780;28;45458;-74
2022/03/12 05:19:46;;;;;;;;;10.00;8.33;;;;;11.13;43.06;99275.66;5056252;28;45592;-73
2022/03/12 05:22:15;;;;;;;;;10.67;10.00;;;;;11.12;43.15;99282.72;5038046;28;47644;-74
2022/03/12 05:24:41;;;;;;;;;9.00;8.00;;;;;11.10;43.23;99279.28;5056323;28;45436;-74
2022/03/12 05:27:08;;;;;;;;;8.67;7.00;;;;;11.10;42.98;99283.69;5056444;28;45469;-74
2022/03/12 05:29:34;;;;;;;;;12.33;8.67;;;;;11.08;43.01;99288.16;5056271;28;45425;-74
2022/03/12 05:31:59;;;;;;;;;7.00;6.33;;;;;11.04;42.97;99290.09;5056177;28;46060;-74
2022/03/12 05:34:25;;;;;;;;;8.67;8.67;;;;;11.02;43.33;99280.50;5055993;28;45402;-74
2022/03/12 05:36:51;;;;;;;;;7.00;5.33;;;;;11.03;43.26;99282.22;5056017;28;45564;-74
2022/03/12 05:39:17;;;;;;;;;9.00;9.00;;;;;11.03;43.40;99279.59;5038343;28;45327;-74
2022/03/12 05:41:45;;;;;;;;;9.00;7.33;;;;;11.00;43.20;99288.47;5037681;28;48307;-74
2022/03/12 05:44:14;;;;;;;;;7.33;6.67;;;;;10.97;43.28;99291.25;5038094;28;45462;-74
2022/03/12 05:46:40;;;;;;;;;12.33;9.00;;;;;10.95;43.58;99297.50;5055960;28;45437;-73
2022/03/12 05:49:06;;;;;;;;;3.33;2.67;;;;;10.91;43.19;99298.50;5056009;28;45339;-74
2022/03/12 05:51:32;;;;;;;;;9.67;8.00;;;;;10.87;43.58;99300.44;5055586;28;45581;-73
2022/03/12 05:53:58;;;;;;;;;5.67;5.67;;;;;10.87;43.52;99299.56;5056241;28;45362;-74
2022/03/12 05:56:23;;;;;;;;;6.00;6.00;;;;;10.86;43.42;99309.28;5055918;28;45226;-74
2022/03/12 05:58:49;;;;;;;;;9.33;7.00;;;;;10.84;43.64;99311.09;5055927;28;45334;-73
2022/03/12 06:01:15;;;;;;;;;7.67;7.67;;;;;10.83;43.55;99317.28;5055790;28;46429;-73
2022/03/12 06:03:41;;;;;;;;;6.67;6.67;;;;;10.82;43.70;99310.28;5056015;28;45302;-74
2022/03/12 06:06:08;;;;;;;;;6.33;6.00;;;;;10.81;44.14;99316.47;5056031;28;45453;-74
2022/03/12 06:08:34;;;;;;;;;6.33;5.67;;;;;10.76;44.44;99327.19;5037213;28;45513;-74
2022/03/12 06:11:00;;;;;;;;;8.00;5.67;;;;;10.73;43.92;99316.75;5055152;28;45637;-74
2022/03/12 06:13:28;;;;;;;;;7.67;7.00;;;;;10.71;44.40;99321.25;5055961;28;45438;-74
2022/03/12 06:15:58;;;;;;;;;6.00;6.00;;;;;10.71;44.33;99315.13;5055676;28;45731;-74
2022/03/12 06:18:33;;;;;;;;;8.00;6.00;;;;;10.71;44.37;99315.97;5037067;28;45917;-74
2022/03/12 06:20:59;;;;;;;;;5.33;5.33;;;;;10.69;44.74;99323.09;5055309;28;45421;-74
2022/03/12 06:23:26;;;;;;;;;6.33;5.00;;;;;10.68;44.74;99328.41;5055087;28;45447;-74
2022/03/12 06:25:52;;;;;;;;;9.67;8.67;;;;;10.67;44.81;99329.34;5055458;28;45504;-74
2022/03/12 06:28:19;;;;;;;;;7.00;7.00;;;;;10.64;44.67;99324.16;5037293;28;45448;-73
2022/03/12 06:30:45;;;;;;;;;5.00;5.00;;;;;10.63;45.07;99328.56;5055145;28;45416;-74
2022/03/12 06:33:11;;;;;;;;;10.00;9.00;;;;;10.63;44.96;99323.31;5036094;28;45479;-74
2022/03/12 06:35:37;;;;;;;;;7.00;7.00;;;;;10.65;44.99;99324.13;5054918;28;45533;-74
2022/03/12 06:38:02;;;;;;;;;4.67;4.33;;;;;10.66;45.35;99324.97;5054807;28;45590;-74
2022/03/12 06:40:28;;;;;;;;;5.00;5.00;;;;;10.66;45.22;99322.34;5055125;28;45425;-74
2022/03/12 06:42:59;;;;;;;;;11.00;9.00;;;;;10.66;45.33;99327.59;5055008;28;45485;-74
2022/03/12 06:45:25;;;;;;;;;8.00;7.00;;;;;10.65;45.19;99326.75;5036919;28;45266;-74
2022/03/12 06:47:50;;;;;;;;;9.67;7.00;;;;;10.68;45.29;99333.69;5036846;28;45293;-74
2022/03/12 06:50:18;;;;;;;;;14.67;10.00;;;;;10.72;45.31;99335.31;5054269;28;46425;-73
2022/03/12 06:52:48;;;;;;;;;7.33;7.00;;;;;10.77;44.99;99336.84;5054439;28;45447;-74
2022/03/12 06:55:15;;;;;;;;;8.33;8.00;;;;;10.79;45.31;99340.28;5054620;28;45377;-74
2022/03/12 06:57:40;;;;;;;;;5.67;4.67;;;;;10.81;45.52;99340.22;5055195;28;45441;-74
2022/03/12 07:00:12;;;;;;;;;4.67;4.67;;;;;10.78;45.71;99333.28;5055281;28;45555;-75
2022/03/12 07:02:38;;;;;;;;;7.33;7.33;;;;;10.79;45.43;99332.38;5055087;28;45259;-74
2022/03/12 07:05:04;;;;;;;;;7.00;7.00;;;;;10.78;45.25;99338.56;5036363;28;45371;-74
2022/03/12 07:07:30;;;;;;;;;7.00;7.00;;;;;10.80;45.53;99338.50;5054776;28;45325;-73
2022/03/12 07:09:55;;;;;;;;;9.33;9.33;;;;;10.81;45.54;99337.59;5054177;28;46439;-74
2022/03/12 07:12:20;;;;;;;;;6.67;6.67;;;;;10.83;45.61;99339.25;5054269;28;45322;-74
2022/03/12 07:14:46;;;;;;;;;10.33;8.33;;;;;10.84;45.58;99337.47;5054678;28;45526;-74
2022/03/12 07:17:11;;;;;;;;;10.00;8.00;;;;;10.86;45.51;99340.91;5054867;28;45418;-74
2022/03/12 07:19:37;;;;;;;;;6.67;6.67;;;;;10.91;45.32;99349.50;5034828;28;48027;-69
2022/03/12 07:22:03;;;;;;;;;8.00;7.33;;;;;10.98;45.44;99347.50;5054563;28;45359;-70
2022/03/12 07:24:28;;;;;;;;;7.00;7.00;;;;;11.04;45.50;99349.91;5036490;28;45434;-70
2022/03/12 07:26:53;;;;;;;;;8.00;6.33;;;;;11.11;45.40;99354.00;5054938;28;45414;-69
2022/03/12 07:29:19;;;;;;;;;7.00;6.67;;;;;11.17;45.25;99351.16;5054536;28;45763;-70
2022/03/12 07:31:44;;;;;;;;;8.00;7.00;;;;;11.22;45.05;99353.63;5054819;28;45266;-70
2022/03/12 07:34:10;;;;;;;;;7.33;6.00;;;;;11.25;45.13;99349.06;5053794;28;46087;-70
2022/03/12 07:36:36;;;;;;;;;7.33;7.33;;;;;11.28;45.02;99353.34;5054430;28;45438;-69
2022/03/12 07:39:03;;;;;;;;;6.00;6.00;;;;;11.29;45.10;99355.09;5053785;28;45501;-70
2022/03/12 07:41:30;;;;;;;;;7.67;7.67;;;;;11.33;45.32;99352.28;5054133;28;45312;-69
2022/03/12 07:43:56;;;;;;;;;10.67;10.67;;;;;11.41;45.22;99358.09;5053925;28;45413;-70
2022/03/12 07:46:21;;;;;;;;;11.00;10.00;;;;;11.48;45.42;99356.06;5039630;28;45900;-70
2022/03/12 07:48:47;;;;;;;;;9.00;9.00;;;;;11.57;45.49;99360.13;5057359;28;45480;-70
2022/03/12 07:51:13;;;;;;;;;10.00;10.00;;;;;11.64;45.22;99358.97;5057926;28;45392;-70
2022/03/12 07:53:39;;;;;;;;;9.33;8.00;;;;;11.69;45.47;99364.91;5052475;28;45461;-69
2022/03/12 07:56:07;;;;;;;;;8.67;8.67;;;;;11.71;45.46;99366.59;5055357;28;45407;-70
2022/03/12 07:58:33;;;;;;;;;10.33;9.00;;;;;11.68;45.42;99361.41;5057004;28;46011;-70
2022/03/12 08:00:58;;;;;;;;;10.67;9.33;;;;;11.66;45.41;99355.34;5059801;28;45355;-71
2022/03/12 08:03:25;;;;;;;;;9.67;9.00;;;;;11.65;45.49;99352.75;5056795;28;45365;-70
2022/03/12 08:05:52;;;;;;;;;11.00;11.00;;;;;11.63;45.63;99349.31;5057651;28;45415;-71
2022/03/12 08:08:18;;;;;;;;;11.00;10.00;;;;;11.57;45.74;99360.13;5056966;28;45468;-71
2022/03/12 08:13:29;;;;;;;;;9.00;8.00;;;;;11.43;45.81;99360.66;5057632;28;45449;-71
2022/03/12 08:15:55;;;;;;;;;7.67;7.67;;;;;11.42;45.78;99362.44;5056260;28;45425;-70
2022/03/12 08:18:22;;;;;;;;;12.00;9.00;;;;;11.40;46.08;99366.06;5037872;28;46777;-71
2022/03/12 08:20:49;;;;;;;;;10.67;10.33;;;;;11.39;45.83;99361.75;5056183;28;45361;-69
2022/03/12 08:23:15;;;;;;;;;12.00;11.67;;;;;11.40;45.89;99366.94;5055626;28;45353;-70
2022/03/12 08:25:41;;;;;;;;;14.33;12.67;;;;;11.42;46.28;99364.22;5038548;28;45611;-69
2022/03/12 08:28:07;;;;;;;;;8.33;7.00;;;;;11.45;45.97;99364.97;5057119;28;45440;-70
2022/03/12 08:30:34;;;;;;;;;8.00;8.00;;;;;11.48;46.12;99366.63;5056929;28;45355;-70
2022/03/12 08:33:00;;;;;;;;;13.33;12.33;;;;;11.47;46.36;99360.50;5056378;28;45437;-70
2022/03/12 08:35:26;;;;;;;;;10.00;8.33;;;;;11.44;46.20;99355.34;5056383;28;45508;-70
2022/03/12 08:37:51;;;;;;;;;9.00;8.67;;;;;11.41;46.32;99360.72;5056842;28;45311;-70
2022/03/12 08:40:17;;;;;;;;;9.67;8.67;;;;;11.42;46.37;99356.31;5056974;28;45227;-70
2022/03/12 08:42:43;;;;;;;;;7.00;7.00;;;;;11.45;46.32;99346.50;5056558;28;45456;-70
2022/03/12 08:45:11;;;;;;;;;8.00;7.67;;;;;11.47;46.53;99349.94;5056800;28;45255;-70
2022/03/12 08:47:37;;;;;;;;;8.67;8.00;;;;;11.48;46.49;99356.94;5056234;28;45382;-71
2022/03/12 08:50:06;;;;;;;;;6.67;4.33;;;;;11.47;46.51;99354.34;5056003;28;45458;-70
2022/03/12 08:52:32;;;;;;;;;8.67;6.00;;;;;11.46;46.52;99350.84;5056740;28;45393;-72
2022/03/12 08:54:57;;;;;;;;;8.00;6.67;;;;;11.48;46.71;99350.78;5055910;28;45611;-70
2022/03/12 08:57:23;;;;;;;;;13.33;9.00;;;;;11.48;46.49;99350.78;5055198;28;45705;-70
2022/03/12 08:59:48;;;;;;;;;9.00;8.00;;;;;11.48;46.54;99346.38;5056355;28;45337;-70
2022/03/12 09:02:14;;;;;;;;;8.00;8.00;;;;;11.52;46.48;99355.03;5054670;28;45365;-71
2022/03/12 09:04:39;;;;;;;;;9.00;8.00;;;;;11.55;46.21;99347.00;5055463;28;45334;-70
2022/03/12 09:07:05;;;;;;;;;11.00;8.67;;;;;11.55;46.35;99347.00;5055475;28;46064;-71
2022/03/12 09:09:31;;;;;;;;;10.00;9.67;;;;;11.56;46.23;99337.31;5055175;28;45457;-70
2022/03/12 09:11:56;;;;;;;;;11.33;7.67;;;;;11.59;46.27;99347.72;5055245;28;45447;-70
2022/03/12 09:14:22;;;;;;;;;6.00;6.00;;;;;11.64;46.30;99336.06;5055555;28;45410;-70
2022/03/12 09:16:47;;;;;;;;;13.67;12.67;;;;;11.72;46.15;99330.47;5056057;28;45385;-70
2022/03/12 09:19:13;;;;;;;;;11.00;11.00;;;;;11.76;46.07;99337.34;5055007;28;45431;-70
2022/03/12 09:21:39;;;;;;;;;13.67;11.67;;;;;11.77;46.06;99337.28;5055261;28;45794;-70
2022/03/12 09:24:06;;;;;;;;;8.00;7.00;;;;;11.81;45.93;99335.38;5055957;28;45381;-70
2022/03/12 09:26:31;;;;;;;;;10.67;9.67;;;;;11.85;45.87;99334.34;5055366;28;46040;-70
2022/03/12 09:28:57;;;;;;;;;9.00;9.00;;;;;11.90;46.01;99328.88;5055029;28;45501;-70
2022/03/12 09:31:24;;;;;;;;;6.33;6.33;;;;;11.96;45.35;99329.47;5055103;28;45512;-70
2022/03/12 09:33:49;;;;;;;;;10.00;8.67;;;;;12.03;45.45;99330.94;5055699;28;45308;-70
2022/03/12 09:36:16;;;;;;;;;7.00;7.00;;;;;12.08;45.37;99330.72;5055512;28;45723;-70
2022/03/12 09:38:42;;;;;;;;;7.00;7.00;;;;;12.16;45.32;99331.25;5055492;28;45358;-69
2022/03/12 09:41:07;;;;;;;;;10.33;9.33;;;;;12.25;45.19;99328.19;5055831;28;45450;-69
2022/03/12 09:43:33;;;;;;;;;8.00;8.00;;;;;12.31;45.37;99327.94;5055175;28;45428;-70
2022/03/12 09:46:00;;;;;;;;;8.00;8.00;;;;;12.37;45.10;99310.97;5054913;28;45490;-70
2022/03/12 09:48:26;;;;;;;;;9.67;9.00;;;;;12.44;45.00;99321.19;5055002;28;45429;-69
2022/03/12 09:50:51;;;;;;;;;10.33;9.00;;;;;12.57;45.43;99313.56;5055103;28;45526;-71
2022/03/12 09:53:17;;;;;;;;;9.00;9.00;;;;;12.74;44.82;99307.50;5054833;28;45236;-70
2022/03/12 09:55:42;;;;;;;;;14.00;11.00;;;;;12.89;44.72;99288.28;5054809;28;45422;-70
2022/03/12 09:58:08;;;;;;;;;9.33;8.67;;;;;12.98;44.36;99292.28;5035767;28;45383;-71
2022/03/12 10:00:34;;;;;;;;;13.00;10.00;;;;;13.06;44.41;99285.72;5054732;28;45203;-71
2022/03/12 10:03:00;;;;;;;;;10.67;8.33;;;;;13.22;43.95;99288.50;5054594;28;45381;-71
2022/03/12 10:05:27;;;;;;;;;12.00;12.00;;;;;13.38;43.71;99283.31;5055183;28;45394;-71
2022/03/12 10:07:53;;;;;;;;;11.67;10.00;;;;;13.53;43.38;99280.78;5054206;28;45537;-70
2022/03/12 10:10:21;;;;;;;;;10.00;9.00;;;;;13.65;43.27;99275.78;5055485;28;45421;-71
2022/03/12 10:12:47;;;;;;;;;13.00;10.00;;;;;13.73;43.04;99274.50;5054616;28;45420;-71
2022/03/12 10:15:15;;;;;;;;;12.00;10.00;;;;;13.81;42.95;99271.44;5054561;28;45577;-67
2022/03/12 10:17:41;;;;;;;;;16.00;14.67;;;;;13.87;42.77;99264.03;5054728;28;45345;-66
2022/03/12 10:20:07;;;;;;;;;14.67;14.67;;;;;14.00;42.69;99266.06;5053044;28;45393;-66
2022/03/12 10:22:33;;;;;;;;;22.33;19.67;;;;;14.12;42.29;99263.63;5054015;28;45288;-66
2022/03/12 10:24:59;;;;;;;;;18.33;17.67;;;;;14.24;41.88;99262.97;5054539;28;45614;-66
2022/03/12 10:27:24;;;;;;;;;20.00;19.33;;;;;14.33;41.67;99261.63;5054403;28;45438;-67
2022/03/12 10:29:50;;;;;;;;;16.33;16.33;;;;;14.44;41.59;99263.75;5052391;28;45479;-66
2022/03/12 10:32:30;;;;;;;;;18.67;15.33;;;;;14.57;41.29;99257.72;5054063;28;45356;-66
2022/03/12 10:34:59;;;;;;;;;18.00;18.00;;;;;14.66;40.87;99256.34;5053894;28;46226;-67
2022/03/12 10:37:30;;;;;;;;;16.67;14.00;;;;;14.72;41.01;99250.72;5053606;28;45514;-65
2022/03/12 10:40:12;;;;;;;;;12.50;12.00;;;;;14.79;41.46;99253.88;5054339;28;45337;-64
2022/03/12 10:42:54;;;;;;;;;12.50;12.50;;;;;14.79;40.92;99241.47;5024136;28;45544;-65
2022/03/12 10:45:22;;;;;;;;;16.00;14.00;;;;;14.77;41.00;99247.78;5054020;28;45800;-64
2022/03/12 10:47:51;;;;;;;;;25.00;21.00;;;;;14.79;40.12;99245.91;5053444;28;45443;-64
2022/03/12 10:50:20;;;;;;;;;19.00;16.00;;;;;14.73;39.32;99244.47;5054103;28;45611;-64
2022/03/12 10:52:52;;;;;;;;;16.75;15.00;;;;;14.66;40.22;99246.59;5054377;28;45295;-63
2022/03/12 10:55:23;;;;;;;;;15.67;15.00;;;;;14.59;40.70;99239.88;5053313;28;45456;-64
2022/03/12 10:58:08;;;;;;;;;13.00;11.33;;;;;14.54;40.80;99235.78;5052617;28;45397;-64
2022/03/12 11:00:38;;;;;;;;;13.67;13.67;;;;;14.56;41.03;99225.97;5053754;28;45393;-64
2022/03/12 11:03:10;;;;;;;;;13.00;10.75;;;;;14.64;40.71;99223.72;5052896;28;45501;-64
2022/03/12 11:05:36;;;;;;;;;15.00;15.00;;;;;14.67;40.62;99223.56;5053517;28;45394;-64
2022/03/12 11:08:15;;;;;;;;;17.00;14.67;;;;;14.75;40.73;99213.38;5053449;28;45331;-64
2022/03/12 11:10:55;;;;;;;;;14.00;11.67;;;;;14.86;40.21;99205.69;5054038;28;45437;-64
2022/03/12 11:13:47;;;;;;;;;18.33;17.00;;;;;15.00;40.18;99211.06;5053870;28;45414;-64
2022/03/12 11:16:32;;;;;;;;;17.33;15.33;;;;;15.11;39.89;99209.59;5053523;28;45592;-64
2022/03/12 11:19:07;;;;;;;;;14.67;14.33;;;;;15.02;40.08;99211.84;5054070;28;45483;-63
2022/03/12 11:21:40;;;;;;;;;14.67;12.67;;;;;14.96;39.41;99200.69;5060518;28;45377;-62
2022/03/12 11:24:24;;;;;;;;;17.33;16.33;;;;;14.86;39.90;99204.81;5060041;28;45397;-63
2022/03/12 11:26:53;;;;;;;;;12.33;12.33;;;;;14.76;40.36;99206.25;5060254;28;45503;-63